Caledonia, Mississippi
Current Conditions -  °F | °C
As of 5:28 AM on Thursday 23 Oct 2014 (Local Time) from KCBM Reporting Station
Haze Haze  
Wind Chill: 43°   Ceiling: Unl
Heat Index: 43°   Visibility: 1.7mi
Dew Point: 43°   Wind: 2mph
Humidity: 100%   Direction: 320°NW
Pressure: 30.16"   Gusts: NA
Location:  33.68°N, 88.32°W
Report Text: KCBM 231028Z AUTO 32002KT 1 3/4SM R31C/3000FT BR CLR 06/06 A3016 RMK AO2 VIS 1 3/4V5 $
Loading
Personal Weather Stations






























Interactive Weather Map
Tropical Storm Tracking
New forecast layout! Learn more

10-Day Weather Forecast

Advertisements
Track Severe Weather on mobile